Time;durP1;ratioP1;P1;durP2;ratioP2;P2;SDS_P1;SDS_P2;PMS_P1;PMS_P2;Temp;Humidity;BMP_temperature;BMP_pressure;BME280_temperature;BME280_humidity;BME280_pressure;Samples;Min_cycle;Max_cycle;Signal;HPM_P1;HPM_P2
2023/01/11 00:00:29;;;;;;;3.58;1.50;;;;;;;8.68;52.72;100745.81;7392145;19;19998;-55
2023/01/11 00:03:00;;;;;;;3.65;1.65;;;;;;;8.53;53.13;100737.09;7391465;19;19999;-54
2023/01/11 00:05:26;;;;;;;5.80;1.83;;;;;;;8.93;52.39;100726.91;7391522;19;19998;-55
2023/01/11 00:07:52;;;;;;;4.78;1.80;;;;;;;8.64;53.22;100742.16;7390158;19;20001;-54
2023/01/11 00:10:18;;;;;;;6.90;1.73;;;;;;;8.92;52.29;100730.78;7389950;19;20002;-54
2023/01/11 00:12:48;;;;;;;3.13;1.63;;;;;;;9.26;51.49;100722.31;7390756;19;20002;-55
2023/01/11 00:15:14;;;;;;;4.15;1.48;;;;;;;9.13;51.59;100714.44;7391837;19;19995;-56
2023/01/11 00:17:40;;;;;;;3.22;1.40;;;;;;;8.41;53.53;100720.69;7387724;19;19994;-55
2023/01/11 00:20:08;;;;;;;4.65;1.50;;;;;;;8.51;53.77;100720.31;7390828;19;20003;-56
2023/01/11 00:22:34;;;;;;;3.63;1.50;;;;;;;8.40;54.02;100729.16;7390482;19;19995;-57
2023/01/11 00:25:00;;;;;;;6.05;1.65;;;;;;;8.88;52.93;100725.19;7389131;19;19994;-55
2023/01/11 00:27:28;;;;;;;3.30;1.50;;;;;;;9.15;52.05;100715.72;7395653;19;20458;-55
2023/01/11 00:29:54;;;;;;;3.50;1.40;;;;;;;8.89;52.80;100722.13;7396657;19;20022;-54
2023/01/11 00:32:20;;;;;;;4.18;1.70;;;;;;;9.09;52.31;100712.38;7397911;19;19995;-56
2023/01/11 00:34:46;;;;;;;4.65;1.77;;;;;;;8.68;53.21;100705.81;7394502;19;20327;-56
2023/01/11 00:37:12;;;;;;;3.53;1.50;;;;;;;9.15;52.03;100696.66;7398022;19;20340;-56
2023/01/11 00:39:37;;;;;;;3.80;1.73;;;;;;;9.31;51.89;100696.00;7396126;19;19994;-56
2023/01/11 00:50:20;;;;;;;2.42;1.40;;;;;;;8.76;53.18;100676.94;7395970;19;20768;-56
2023/01/11 00:52:46;;;;;;;5.32;1.60;;;;;;;8.94;52.90;100674.88;7398234;19;20066;-57
2023/01/11 00:55:15;;;;;;;3.92;1.70;;;;;;;9.20;52.24;100673.84;7397369;19;20002;-56
2023/01/11 00:57:44;;;;;;;4.28;1.75;;;;;;;9.20;52.67;100669.19;7396268;19;20107;-57
2023/01/11 01:00:11;;;;;;;3.55;1.52;;;;;;;9.21;52.76;100667.28;7395235;19;20002;-57
2023/01/11 01:02:37;;;;;;;4.43;1.50;;;;;;;9.40;52.39;100664.03;7394930;19;20443;-57
2023/01/11 01:05:03;;;;;;;6.18;1.75;;;;;;;9.17;52.80;100660.91;7395602;19;20002;-56
2023/01/11 01:07:28;;;;;;;4.93;1.70;;;;;;;9.42;52.49;100659.84;7396134;19;19998;-56
2023/01/11 01:09:57;;;;;;;4.57;1.50;;;;;;;9.45;52.35;100655.66;7393627;19;20001;-57
2023/01/11 01:15:08;;;;;;;3.25;1.88;;;;;;;8.88;54.10;100673.47;7397474;19;20010;-56
2023/01/11 01:17:33;;;;;;;4.43;1.80;;;;;;;9.07;53.75;100659.41;7397371;19;20026;-58
2023/01/11 01:19:59;;;;;;;5.82;2.08;;;;;;;9.40;52.76;100655.84;7396481;19;20401;-56
2023/01/11 01:22:26;;;;;;;3.42;1.73;;;;;;;9.41;52.71;100662.91;7394856;19;20006;-55
2023/01/11 01:24:51;;;;;;;4.22;1.95;;;;;;;9.34;52.94;100651.78;7393816;19;20001;-56
2023/01/11 01:27:18;;;;;;;3.72;1.90;;;;;;;9.53;52.81;100645.78;7394562;19;19991;-56
2023/01/11 01:29:45;;;;;;;3.72;1.67;;;;;;;9.26;53.39;100645.28;7394684;19;20011;-57
2023/01/11 01:32:11;;;;;;;4.45;1.80;;;;;;;9.25;53.57;100639.03;7394413;19;20029;-57
2023/01/11 01:34:36;;;;;;;3.08;1.65;;;;;;;9.40;53.06;100634.06;7388971;19;20023;-61
2023/01/11 01:37:04;;;;;;;4.43;1.85;;;;;;;9.60;52.83;100633.25;7394337;19;20817;-61
2023/01/11 01:39:30;;;;;;;5.18;1.70;;;;;;;9.84;52.12;100628.94;7395785;19;19998;-60
2023/01/11 01:41:56;;;;;;;3.55;1.83;;;;;;;9.39;52.97;100624.31;7395864;19;20019;-61
2023/01/11 01:45:01;;;;;;;4.47;1.80;;;;;;;9.35;53.42;100642.44;7394683;19;20030;-61
2023/01/11 01:47:43;;;;;;;3.33;1.70;;;;;;;9.56;53.18;100617.88;7394961;19;19998;-60
2023/01/11 01:50:14;;;;;;;4.45;1.92;;;;;;;9.37;53.59;100627.38;7394053;19;19999;-60
2023/01/11 01:52:45;;;;;;;3.22;1.90;;;;;;;9.59;53.16;100619.94;7395581;19;20018;-62
2023/01/11 01:55:18;;;;;;;4.03;1.70;;;;;;;9.54;53.46;100620.94;7391534;19;20019;-60
2023/01/11 01:57:44;;;;;;;6.80;1.90;;;;;;;9.29;54.20;100617.38;7394575;19;20122;-62
2023/01/11 02:00:11;;;;;;;2.72;1.60;;;;;;;9.45;53.93;100617.53;7393663;19;20016;-63
2023/01/11 02:02:41;;;;;;;3.92;1.95;;;;;;;9.72;53.15;100621.56;7394811;19;19990;-61
2023/01/11 02:05:08;;;;;;;2.88;1.70;;;;;;;9.71;53.37;100616.44;7393505;19;19998;-60
2023/01/11 02:07:37;;;;;;;3.08;1.95;;;;;;;9.58;53.59;100610.16;7393877;19;20011;-61
2023/01/11 02:10:17;;;;;;;3.28;1.92;;;;;;;9.83;53.02;100613.72;7393362;19;20498;-60
2023/01/11 02:12:56;;;;;;;2.97;1.55;;;;;;;9.84;53.13;100612.59;7394654;19;20721;-60
2023/01/11 02:15:22;;;;;;;3.35;1.80;;;;;;;9.84;53.19;100607.13;7392522;19;20022;-60
2023/01/11 02:17:48;;;;;;;4.32;2.00;;;;;;;9.71;53.74;100589.97;7393850;19;20019;-60
2023/01/11 02:20:44;;;;;;;2.97;1.98;;;;;;;9.91;53.26;100601.09;7393524;19;20006;-60
2023/01/11 02:23:41;;;;;;;4.68;2.10;;;;;;;9.96;53.13;100596.22;7392962;19;20498;-61
2023/01/11 02:26:15;;;;;;;3.40;1.90;;;;;;;9.83;53.53;100600.06;7394558;19;20346;-60
2023/01/11 02:28:57;;;;;;;2.83;1.73;;;;;;;9.83;53.63;100586.44;7392315;19;19998;-60
2023/01/11 02:32:00;;;;;;;2.30;1.58;;;;;;;9.88;53.60;100596.34;7393569;19;19998;-60
2023/01/11 02:34:40;;;;;;;4.13;1.90;;;;;;;9.98;53.11;100596.69;7392080;19;20317;-60
2023/01/11 02:37:18;;;;;;;3.42;1.80;;;;;;;9.84;53.59;100588.06;7393343;19;20022;-60
2023/01/11 02:39:50;;;;;;;6.15;1.95;;;;;;;10.04;53.02;100588.28;7393512;19;20006;-59
2023/01/11 02:45:24;;;;;;;3.70;1.83;;;;;;;10.06;53.17;100588.72;7391007;19;20006;-59
2023/01/11 02:48:21;;;;;;;2.35;1.35;;;;;;;10.00;53.45;100585.41;7390800;19;20003;-60
2023/01/11 02:51:18;;;;;;;2.40;1.70;;;;;;;9.56;54.84;100583.22;7387742;19;20011;-59
2023/01/11 02:54:04;;;;;;;2.50;1.50;;;;;;;9.97;53.79;100594.31;7389807;19;20036;-59
2023/01/11 02:56:35;;;;;;;3.65;1.40;;;;;;;9.92;53.91;100589.88;7392703;19;20066;-60
2023/01/11 02:59:01;;;;;;;5.07;1.80;;;;;;;10.15;53.37;100598.38;7391580;19;19998;-60
2023/01/11 03:01:27;;;;;;;4.10;1.77;;;;;;;10.13;53.32;100588.94;7392289;19;20082;-60
2023/01/11 03:03:53;;;;;;;3.75;1.92;;;;;;;9.99;53.97;100584.63;7392459;19;20106;-60
2023/01/11 03:06:24;;;;;;;2.65;1.73;;;;;;;10.03;53.67;100589.41;7391037;19;20003;-60
2023/01/11 03:09:12;;;;;;;5.15;1.70;;;;;;;10.24;53.44;100584.59;7392071;19;20010;-59
2023/01/11 03:15:17;;;;;;;3.83;1.77;;;;;;;9.74;55.47;100574.88;7390836;19;20634;-59
2023/01/11 03:18:05;;;;;;;3.28;1.65;;;;;;;9.85;55.43;100570.56;7391317;19;20014;-60
2023/01/11 03:20:37;;;;;;;3.90;1.92;;;;;;;9.78;55.52;100568.41;7392168;19;20340;-59
2023/01/11 03:23:15;;;;;;;2.60;1.70;;;;;;;10.03;54.85;100567.59;7392501;19;20514;-60
2023/01/11 03:25:47;;;;;;;3.92;1.80;;;;;;;10.22;54.63;100556.88;7392228;19;20361;-59
2023/01/11 03:28:36;;;;;;;2.67;1.65;;;;;;;10.23;54.60;100558.44;7390787;19;20007;-59
2023/01/11 03:31:21;;;;;;;3.45;1.85;;;;;;;10.15;54.80;100565.63;7392360;19;20006;-59
2023/01/11 03:33:59;;;;;;;2.85;1.70;;;;;;;10.23;54.90;100553.00;7390787;19;20012;-60
2023/01/11 03:36:34;;;;;;;3.40;1.60;;;;;;;10.14;54.88;100552.34;7391574;19;20006;-60
2023/01/11 03:39:07;;;;;;;3.05;1.50;;;;;;;10.14;55.13;100552.34;7391527;19;20352;-59
2023/01/11 03:41:35;;;;;;;;;;;;;;;10.16;55.44;100555.53;7392171;19;19990;-60
2023/01/11 03:44:03;;;;;;;4.45;1.40;;;;;;;9.92;55.96;100557.16;7390297;19;19911;-59
2023/01/11 03:46:38;;;;;;;1.70;1.17;;;;;;;10.31;54.80;100557.53;7391705;19;20002;-60
2023/01/11 03:49:11;;;;;;;2.58;1.27;;;;;;;9.99;55.71;100556.56;7390464;19;19995;-60
2023/01/11 03:51:42;;;;;;;4.77;1.40;;;;;;;10.08;55.72;100553.72;7391359;19;20025;-61
2023/01/11 03:54:20;;;;;;;2.20;1.55;;;;;;;10.13;55.86;100546.09;7389980;19;20474;-59
2023/01/11 03:57:06;;;;;;;2.70;1.45;;;;;;;10.34;55.11;100551.38;7390081;19;20481;-59
2023/01/11 03:59:32;;;;;;;2.20;1.40;;;;;;;10.45;54.75;100556.34;7390445;19;20016;-59
2023/01/11 04:01:59;;;;;;;2.55;1.42;;;;;;;10.64;54.38;100551.06;7391217;19;20003;-60
2023/01/11 04:04:25;;;;;;;2.20;1.30;;;;;;;10.76;54.01;100552.19;7389563;19;20002;-60
2023/01/11 04:06:50;;;;;;;3.65;1.35;;;;;;;10.33;55.10;100544.31;7390445;19;20473;-61
2023/01/11 04:09:16;;;;;;;4.18;1.40;;;;;;;10.33;55.29;100549.00;7389635;19;20062;-60
2023/01/11 04:11:42;;;;;;;3.08;1.45;;;;;;;10.62;54.49;100544.34;7388980;19;20074;-60
2023/01/11 04:14:07;;;;;;;4.03;1.58;;;;;;;10.46;55.00;100552.50;7389755;19;19998;-59
2023/01/11 04:16:33;;;;;;;3.55;1.40;;;;;;;10.15;55.85;100559.38;7390631;19;20001;-59
2023/01/11 04:19:01;;;;;;;1.98;1.35;;;;;;;10.25;55.47;100553.47;7389396;19;20003;-60
2023/01/11 04:21:28;;;;;;;3.55;1.50;;;;;;;9.94;56.94;100543.19;7390735;19;20006;-59
2023/01/11 04:23:54;;;;;;;2.50;1.48;;;;;;;10.06;56.49;100548.59;7389340;19;20382;-60
2023/01/11 04:26:20;;;;;;;4.25;1.30;;;;;;;10.49;55.30;100546.34;7389434;19;20022;-60
2023/01/11 04:28:46;;;;;;;4.32;1.42;;;;;;;10.62;55.03;100547.88;7390250;19;20327;-58
2023/01/11 04:31:12;;;;;;;1.65;1.15;;;;;;;10.67;54.71;100542.16;7389490;19;19999;-59
2023/01/11 04:33:38;;;;;;;3.90;1.38;;;;;;;10.71;54.44;100545.78;7387850;19;20021;-60
2023/01/11 04:36:09;;;;;;;1.77;1.05;;;;;;;10.78;54.55;100544.41;7389041;19;20475;-59
2023/01/11 04:38:35;;;;;;;3.88;1.35;;;;;;;10.62;55.02;100556.06;7388456;19;20009;-60
2023/01/11 04:43:46;;;;;;;2.03;1.20;;;;;;;10.42;55.82;100546.94;7389709;19;20096;-59
2023/01/11 04:46:11;;;;;;;2.53;1.38;;;;;;;10.38;55.94;100546.03;7387813;19;20006;-60
2023/01/11 04:48:38;;;;;;;2.38;1.50;;;;;;;10.43;55.97;100539.53;7389239;19;20019;-59
2023/01/11 04:51:08;;;;;;;1.85;1.15;;;;;;;10.68;55.37;100543.75;7389458;19;20003;-58
2023/01/11 04:53:34;;;;;;;2.55;1.30;;;;;;;10.42;55.90;100543.38;7389196;19;20007;-59
2023/01/11 04:56:04;;;;;;;2.60;1.25;;;;;;;10.40;56.16;100545.69;7389418;19;20017;-59
2023/01/11 04:58:32;;;;;;;1.60;1.20;;;;;;;10.31;56.27;100545.81;7389585;19;20070;-59
2023/01/11 05:00:58;;;;;;;2.47;1.27;;;;;;;10.62;55.50;100550.63;7389703;19;20007;-60
2023/01/11 05:03:24;;;;;;;2.03;1.17;;;;;;;10.64;55.46;100547.53;7386488;19;19995;-60
2023/01/11 05:05:57;;;;;;;1.30;1.17;;;;;;;10.70;55.42;100541.47;7387386;19;20003;-59
2023/01/11 05:08:24;;;;;;;1.55;1.20;;;;;;;10.71;55.51;100542.25;7386074;19;20467;-58
2023/01/11 05:10:55;;;;;;;1.60;1.20;;;;;;;10.94;54.84;100556.19;7387471;19;20455;-59
2023/01/11 05:13:21;;;;;;;1.92;1.13;;;;;;;10.88;55.11;100557.56;7392880;19;20007;-59
2023/01/11 05:15:47;;;;;;;1.80;1.25;;;;;;;10.72;55.50;100561.03;7396882;19;20029;-60
2023/01/11 05:18:13;;;;;;;2.13;1.50;;;;;;;10.83;55.12;100552.34;7394843;19;20018;-59
2023/01/11 05:20:38;;;;;;;1.40;1.30;;;;;;;10.92;55.08;100558.44;7394456;19;20006;-59
2023/01/11 05:23:04;;;;;;;2.95;1.50;;;;;;;10.81;55.36;100551.91;7395708;19;20022;-60
2023/01/11 05:25:30;;;;;;;2.40;1.10;;;;;;;10.82;55.55;100558.94;7396774;19;20490;-60
2023/01/11 05:27:56;;;;;;;2.33;1.17;;;;;;;11.00;55.09;100560.22;7395178;19;20336;-60
2023/01/11 05:30:21;;;;;;;1.92;1.10;;;;;;;10.82;55.56;100562.50;7393611;19;20010;-60
2023/01/11 05:32:47;;;;;;;2.15;1.17;;;;;;;10.76;55.92;100561.16;7395370;19;19998;-59
2023/01/11 05:35:13;;;;;;;1.63;1.20;;;;;;;10.91;55.73;100567.78;7392636;19;20308;-60
2023/01/11 05:37:38;;;;;;;2.72;1.20;;;;;;;11.03;55.28;100559.53;7394910;19;20010;-60
2023/01/11 05:40:05;;;;;;;1.70;1.20;;;;;;;10.90;55.70;100561.56;7395257;19;19999;-60
2023/01/11 05:42:31;;;;;;;2.30;1.27;;;;;;;10.45;57.02;100567.25;7394155;19;20002;-60
2023/01/11 05:47:41;;;;;;;2.83;1.40;;;;;;;10.95;55.65;100560.47;7392806;19;19998;-59
2023/01/11 05:50:07;;;;;;;2.67;1.50;;;;;;;10.83;56.13;100574.97;7393533;19;20299;-59
2023/01/11 05:52:33;;;;;;;1.77;1.27;;;;;;;10.76;56.39;100563.09;7395418;19;20022;-60
2023/01/11 05:54:59;;;;;;;1.73;1.35;;;;;;;10.78;56.14;100569.00;7391917;19;20047;-59
2023/01/11 05:57:25;;;;;;;1.52;1.20;;;;;;;10.92;56.10;100566.63;7394237;19;20011;-60
2023/01/11 05:59:50;;;;;;;1.50;1.40;;;;;;;10.99;55.96;100569.56;7392023;19;19999;-58
2023/01/11 06:02:16;;;;;;;1.58;1.40;;;;;;;10.79;56.74;100576.84;7398343;19;20001;-59
2023/01/11 06:04:42;;;;;;;1.65;1.40;;;;;;;10.83;56.70;100582.38;7393056;19;20019;-59
2023/01/11 06:07:08;;;;;;;2.40;1.42;;;;;;;10.69;56.86;100578.09;7393486;19;19995;-60
2023/01/11 06:09:34;;;;;;;1.50;1.40;;;;;;;10.98;56.16;100592.56;7393733;19;20006;-58
2023/01/11 06:12:00;;;;;;;2.20;1.73;;;;;;;10.74;57.06;100583.31;7394391;19;20361;-60
2023/01/11 06:14:26;;;;;;;2.10;1.60;;;;;;;10.65;57.29;100588.13;7392593;19;20331;-59
2023/01/11 06:16:52;;;;;;;2.53;1.50;;;;;;;10.82;56.95;100580.78;7393695;19;20002;-59
2023/01/11 06:19:18;;;;;;;2.08;1.80;;;;;;;10.96;56.56;100581.19;7392222;19;20005;-59
2023/01/11 06:21:43;;;;;;;3.42;1.95;;;;;;;11.15;56.13;100577.00;7393851;19;20001;-59
2023/01/11 06:24:09;;;;;;;2.75;1.90;;;;;;;11.02;56.55;100593.47;7392392;19;20022;-60
2023/01/11 06:26:35;;;;;;;2.28;1.83;;;;;;;11.20;56.05;100601.31;7393789;19;20006;-60
2023/01/11 06:29:00;;;;;;;1.98;1.67;;;;;;;11.20;56.10;100593.13;7393192;19;20026;-59
2023/01/11 06:31:26;;;;;;;2.85;1.90;;;;;;;11.23;56.13;100586.97;7393503;19;20006;-59
2023/01/11 06:33:52;;;;;;;2.55;1.90;;;;;;;11.31;55.85;100591.47;7391882;19;19995;-59
2023/01/11 06:36:17;;;;;;;2.70;2.03;;;;;;;11.34;55.93;100588.03;7393806;19;20002;-59
2023/01/11 06:38:43;;;;;;;3.00;2.10;;;;;;;11.19;56.60;100586.88;7393534;19;19994;-59
2023/01/11 06:41:11;;;;;;;2.70;2.13;;;;;;;11.24;56.35;100585.84;7394072;19;20022;-60
2023/01/11 06:43:40;;;;;;;2.15;1.83;;;;;;;11.39;55.82;100585.03;7391694;19;20009;-60
2023/01/11 06:46:10;;;;;;;2.13;1.83;;;;;;;11.26;56.27;100587.03;7393559;19;19994;-60
2023/01/11 06:48:35;;;;;;;2.45;1.90;;;;;;;11.36;56.05;100590.41;7391745;19;19999;-59
2023/01/11 06:51:01;;;;;;;2.35;1.88;;;;;;;11.13;56.86;100601.13;7393681;19;20021;-58
2023/01/11 06:53:27;;;;;;;3.35;2.00;;;;;;;11.42;55.95;100595.28;7392238;19;19999;-59
2023/01/11 06:55:54;;;;;;;2.50;1.77;;;;;;;11.51;55.46;100599.78;7392401;19;19999;-59
2023/01/11 06:58:22;;;;;;;2.17;1.98;;;;;;;11.43;55.96;100604.25;7391982;19;21127;-60
2023/01/11 07:00:49;;;;;;;2.90;2.20;;;;;;;11.41;56.04;100606.56;7393298;19;20066;-59
2023/01/11 07:03:15;;;;;;;3.20;2.33;;;;;;;11.28;56.37;100614.81;7392318;19;19999;-59
2023/01/11 07:05:42;;;;;;;2.83;2.20;;;;;;;11.24;56.57;100607.69;7392622;19;20078;-59
2023/01/11 07:08:08;;;;;;;2.75;2.22;;;;;;;11.40;56.11;100607.69;7392121;19;20006;-60
2023/01/11 07:10:34;;;;;;;3.65;2.70;;;;;;;11.53;55.85;100602.94;7388807;19;19998;-59
2023/01/11 07:13:00;;;;;;;3.33;2.30;;;;;;;11.42;56.09;100606.19;7392504;19;20002;-60
2023/01/11 07:15:26;;;;;;;3.42;2.63;;;;;;;11.57;55.55;100601.06;7392414;19;19998;-60
2023/01/11 07:17:56;;;;;;;2.90;2.40;;;;;;;11.67;55.41;100612.28;7391875;19;20012;-60
2023/01/11 07:20:23;;;;;;;2.90;2.40;;;;;;;11.55;55.93;100622.50;7390361;19;20007;-60
2023/01/11 07:22:49;;;;;;;5.68;3.13;;;;;;;11.64;55.63;100620.41;7392601;19;19998;-59
2023/01/11 07:25:15;;;;;;;5.68;2.80;;;;;;;11.67;55.62;100631.44;7389918;19;20356;-59
2023/01/11 07:27:41;;;;;;;6.82;3.13;;;;;;;11.68;55.48;100624.00;7390607;19;20001;-59
2023/01/11 07:30:08;;;;;;;5.07;3.15;;;;;;;11.63;55.73;100633.25;7390568;19;20470;-59
2023/01/11 07:32:34;;;;;;;6.10;3.10;;;;;;;11.61;56.10;100626.56;7390727;19;20030;-59
2023/01/11 07:35:00;;;;;;;4.97;3.05;;;;;;;11.63;55.78;100624.28;7387859;19;20014;-59
2023/01/11 07:37:26;;;;;;;5.78;3.70;;;;;;;11.65;56.12;100624.72;7390863;19;20470;-59
2023/01/11 07:39:53;;;;;;;6.43;3.60;;;;;;;11.70;55.71;100635.38;7391821;19;20002;-60
2023/01/11 07:45:04;;;;;;;7.38;3.55;;;;;;;11.88;55.53;100643.28;7390359;19;20512;-59
2023/01/11 07:47:29;;;;;;;4.25;3.38;;;;;;;11.85;55.41;100686.56;7390499;19;20007;-60
2023/01/11 07:49:55;;;;;;;4.18;2.92;;;;;;;11.83;55.35;100688.06;7390694;19;20018;-60
2023/01/11 07:52:21;;;;;;;7.80;2.90;;;;;;;11.54;55.48;100702.91;7388930;19;20002;-60
2023/01/11 07:54:47;;;;;;;6.60;2.42;;;;;;;11.67;54.64;100694.31;7389049;19;20002;-58
2023/01/11 07:57:12;;;;;;;6.53;2.20;;;;;;;11.63;53.88;100698.09;7388228;19;20006;-59
2023/01/11 07:59:38;;;;;;;6.85;2.08;;;;;;;11.65;53.39;100704.78;7391184;19;20395;-60
2023/01/11 08:02:04;;;;;;;8.30;2.50;;;;;;;11.68;53.13;100703.28;7389093;19;20012;-59
2023/01/11 08:04:30;;;;;;;7.40;2.30;;;;;;;11.71;52.92;100705.34;7390682;19;20007;-59
2023/01/11 08:06:55;;;;;;;9.00;3.00;;;;;;;11.70;52.95;100698.25;7390504;19;20007;-59
2023/01/11 08:09:21;;;;;;;9.63;3.00;;;;;;;11.76;52.57;100702.34;7388067;19;20006;-60
2023/01/11 08:14:40;;;;;;;;;;;;;;;11.39;53.05;100693.53;7389639;19;20050;-59
2023/01/11 08:17:09;;;;;;;7.47;2.05;;;;;;;11.64;52.95;100696.97;7390196;19;19922;-60
2023/01/11 08:19:35;;;;;;;6.68;1.60;;;;;;;11.77;52.75;100706.66;7390349;19;20340;-59
2023/01/11 08:22:01;;;;;;;11.25;1.75;;;;;;;11.78;52.70;100697.31;7390440;19;20019;-60
2023/01/11 08:24:27;;;;;;;9.77;1.98;;;;;;;11.78;52.90;100702.00;7387893;19;20003;-60
2023/01/11 08:26:53;;;;;;;6.82;1.73;;;;;;;11.79;52.50;100707.09;7390943;19;20332;-60
2023/01/11 08:29:19;;;;;;;7.50;2.45;;;;;;;11.79;52.60;100709.03;7387441;19;20042;-60
2023/01/11 08:31:46;;;;;;;10.35;2.00;;;;;;;11.83;52.60;100715.41;7390050;19;20011;-60
2023/01/11 08:34:12;;;;;;;5.07;1.35;;;;;;;11.84;52.63;100720.53;7388770;19;20017;-60
2023/01/11 08:36:37;;;;;;;5.38;1.38;;;;;;;11.84;52.72;100717.81;7390084;19;19998;-60
2023/01/11 08:39:03;;;;;;;5.53;1.38;;;;;;;11.87;52.34;100710.81;7387449;19;20026;-59
2023/01/11 08:41:31;;;;;;;6.10;1.50;;;;;;;11.88;52.45;100712.44;7390000;19;20013;-59
2023/01/11 08:43:57;;;;;;;7.97;1.55;;;;;;;11.81;52.73;100710.28;7389252;19;20046;-59
2023/01/11 08:46:23;;;;;;;6.38;1.30;;;;;;;11.83;52.57;100709.94;7391178;19;20003;-59
2023/01/11 08:48:49;;;;;;;5.15;1.17;;;;;;;11.92;52.53;100715.25;7396592;19;20740;-59
2023/01/11 08:51:16;;;;;;;4.63;1.02;;;;;;;11.93;52.31;100714.91;7397060;19;20026;-59
2023/01/11 08:53:42;;;;;;;6.20;1.45;;;;;;;11.83;52.51;100710.72;7396586;19;20070;-59
2023/01/11 08:56:08;;;;;;;5.07;1.70;;;;;;;11.83;52.74;100704.47;7396785;19;20361;-59
2023/01/11 08:58:34;;;;;;;4.53;1.23;;;;;;;11.86;52.71;100703.78;7396168;19;20003;-59
2023/01/11 09:01:01;;;;;;;4.35;1.42;;;;;;;11.89;52.32;100694.88;7396617;19;20106;-61
2023/01/11 09:03:28;;;;;;;4.82;1.40;;;;;;;11.95;52.47;100706.34;7396382;19;20010;-60
2023/01/11 09:05:55;;;;;;;4.82;1.30;;;;;;;11.91;52.45;100713.69;7396418;19;20002;-58
2023/01/11 09:08:22;;;;;;;6.05;1.50;;;;;;;11.94;52.42;100721.16;7395488;19;20454;-59
2023/01/11 09:10:48;;;;;;;5.28;1.75;;;;;;;11.96;52.48;100724.34;7393624;19;20020;-59
2023/01/11 09:13:14;;;;;;;6.18;1.50;;;;;;;11.97;52.43;100726.75;7396536;19;20015;-61
2023/01/11 09:15:40;;;;;;;5.97;1.65;;;;;;;11.95;52.77;100739.16;7396396;19;20026;-59
2023/01/11 09:18:06;;;;;;;6.90;1.73;;;;;;;11.93;52.78;100746.94;7393573;19;20003;-59
2023/01/11 09:20:31;;;;;;;6.85;2.28;;;;;;;11.96;52.59;100757.19;7396453;19;20001;-60
2023/01/11 09:22:57;;;;;;;6.72;1.83;;;;;;;12.01;52.62;100754.19;7396035;19;20074;-59
2023/01/11 09:25:23;;;;;;;6.30;1.80;;;;;;;12.02;52.58;100750.28;7396496;19;20474;-60
2023/01/11 09:27:50;;;;;;;9.70;1.88;;;;;;;12.02;52.52;100755.75;7393003;19;20074;-59
2023/01/11 09:30:18;;;;;;;6.68;1.90;;;;;;;12.04;52.65;100754.25;7394238;19;19998;-59
2023/01/11 09:32:45;;;;;;;8.07;2.00;;;;;;;12.04;52.67;100748.00;7394218;19;20062;-59
2023/01/11 09:35:13;;;;;;;7.05;1.90;;;;;;;12.03;52.52;100747.19;7393900;19;20017;-60
2023/01/11 09:37:43;;;;;;;5.40;1.65;;;;;;;12.03;52.81;100751.88;7394973;19;20785;-59
2023/01/11 09:40:18;;;;;;;7.20;1.88;;;;;;;12.13;52.30;100751.34;7395686;19;19998;-59
2023/01/11 09:42:48;;;;;;;7.10;1.90;;;;;;;12.16;52.20;100753.38;7393287;19;20475;-59
2023/01/11 09:45:27;;;;;;;3.45;1.70;;;;;;;12.09;52.66;100750.47;7393633;19;20321;-59
2023/01/11 09:48:10;;;;;;;5.80;1.83;;;;;;;12.14;52.36;100763.06;7394068;19;20495;-59
2023/01/11 09:50:42;;;;;;;7.07;1.95;;;;;;;12.19;52.32;100777.31;7392141;19;20062;-60
2023/01/11 09:53:31;;;;;;;6.95;2.00;;;;;;;12.24;52.13;100776.25;7394705;19;20031;-59
2023/01/11 09:56:00;;;;;;;7.95;2.47;;;;;;;12.14;52.45;100763.06;7395499;19;20009;-59
2023/01/11 09:58:48;;;;;;;7.63;2.72;;;;;;;12.13;52.75;100784.19;7393174;19;20026;-59
2023/01/11 10:01:42;;;;;;;8.35;3.80;;;;;;;12.20;52.74;100780.81;7394634;19;20050;-60
2023/01/11 10:04:43;;;;;;;8.88;3.53;;;;;;;12.12;52.98;100777.09;7393439;19;19998;-60
2023/01/11 10:07:41;;;;;;;8.95;3.80;;;;;;;12.18;52.96;100783.13;7392121;19;19999;-59
2023/01/11 10:10:47;;;;;;;8.70;4.20;;;;;;;12.22;52.97;100782.06;7392623;19;20016;-58
2023/01/11 10:13:44;;;;;;;11.02;4.00;;;;;;;12.32;52.76;100785.41;7394154;19;20006;-60
2023/01/11 10:16:37;;;;;;;11.95;3.90;;;;;;;12.29;52.99;100784.19;7393590;19;20082;-59
2023/01/11 10:19:21;;;;;;;11.75;4.38;;;;;;;12.39;52.94;100769.16;7393895;19;20347;-60
2023/01/11 10:21:53;;;;;;;10.18;4.35;;;;;;;12.47;52.60;100770.13;7392407;19;20011;-59
2023/01/11 10:24:36;;;;;;;8.63;3.92;;;;;;;12.50;52.78;100770.22;7393080;19;20036;-60
2023/01/11 10:27:08;;;;;;;9.93;3.85;;;;;;;12.59;52.45;100773.56;7393085;19;20396;-61
2023/01/11 10:32:56;;;;;;;13.07;4.40;;;;;;;12.50;52.75;100778.44;7393607;19;20002;-59
2023/01/11 10:35:40;;;;;;;10.65;3.20;;;;;;;12.31;52.97;100778.38;7391215;19;20333;-59
2023/01/11 10:41:14;;;;;;;8.02;3.85;;;;;;;12.48;52.63;100775.25;7393165;19;20014;-59
2023/01/11 10:43:46;;;;;;;10.65;3.70;;;;;;;12.59;52.50;100775.50;7392515;19;20012;-59
2023/01/11 10:46:17;;;;;;;11.55;4.15;;;;;;;12.62;52.22;100768.53;7392897;19;20005;-59
2023/01/11 10:48:44;;;;;;;9.52;3.47;;;;;;;12.58;52.76;100777.44;7392468;19;19999;-59
2023/01/11 10:51:26;;;;;;;9.15;4.20;;;;;;;12.69;52.09;100765.94;7394000;19;19999;-60
2023/01/11 10:54:15;;;;;;;10.63;3.90;;;;;;;12.57;52.44;100769.59;7393096;19;19998;-60
2023/01/11 10:57:10;;;;;;;9.57;3.40;;;;;;;12.59;52.17;100781.78;7393275;19;20050;-59
2023/01/11 10:59:59;;;;;;;10.32;4.15;;;;;;;12.56;52.45;100777.00;7393627;19;19994;-59
2023/01/11 11:02:27;;;;;;;11.63;3.75;;;;;;;12.63;52.44;100781.84;7392514;19;20336;-60
2023/01/11 11:05:25;;;;;;;11.45;3.80;;;;;;;12.66;52.39;100780.34;7390299;19;20002;-59
2023/01/11 11:07:56;;;;;;;10.50;4.15;;;;;;;12.68;52.47;100780.81;7388573;19;20003;-59
2023/01/11 11:10:32;;;;;;;8.80;4.38;;;;;;;12.69;52.61;100782.38;7388531;19;20006;-59
2023/01/11 11:13:11;;;;;;;10.52;4.53;;;;;;;12.67;52.69;100790.16;7391864;19;19998;-59
2023/01/11 11:15:49;;;;;;;10.15;3.90;;;;;;;12.64;52.91;100777.16;7393203;19;20464;-59
2023/01/11 11:18:15;;;;;;;12.52;4.32;;;;;;;12.63;52.66;100786.56;7391626;19;19995;-60
2023/01/11 11:20:42;;;;;;;11.60;4.03;;;;;;;12.63;52.93;100781.84;7392511;19;19999;-59
2023/01/11 11:23:14;;;;;;;11.52;4.72;;;;;;;12.76;52.84;100788.03;7392059;19;20401;-58
2023/01/11 11:25:45;;;;;;;12.95;4.50;;;;;;;12.65;52.73;100782.28;7392133;19;19998;-58
2023/01/11 11:28:14;;;;;;;11.25;3.75;;;;;;;12.63;52.94;100794.75;7390739;19;20459;-59
2023/01/11 11:30:45;;;;;;;12.60;3.60;;;;;;;12.62;52.41;100787.69;7390312;19;19994;-59
2023/01/11 11:33:19;;;;;;;13.25;3.53;;;;;;;12.61;52.25;100795.13;7391603;19;20412;-58
2023/01/11 11:35:58;;;;;;;14.88;3.85;;;;;;;12.62;52.09;100784.94;7388322;19;20007;-59
2023/01/11 11:38:28;;;;;;;12.07;3.00;;;;;;;12.67;52.04;100781.94;7389226;19;20010;-59
2023/01/11 11:41:03;;;;;;;10.10;2.88;;;;;;;12.67;51.94;100790.16;7391317;19;20078;-59
2023/01/11 11:43:30;;;;;;;11.82;3.15;;;;;;;12.59;52.04;100797.41;7391703;19;20340;-59
2023/01/11 11:45:59;;;;;;;13.90;3.10;;;;;;;12.59;52.07;100805.59;7391083;19;20066;-59
2023/01/11 11:48:27;;;;;;;11.38;3.30;;;;;;;12.61;51.77;100806.06;7391279;19;19999;-58
2023/01/11 11:50:56;;;;;;;9.60;2.60;;;;;;;12.51;51.34;100796.44;7387696;19;19998;-59
2023/01/11 11:53:43;;;;;;;11.30;2.90;;;;;;;12.41;51.73;100816.94;7389851;19;20419;-61
2023/01/11 11:56:32;;;;;;;14.75;3.22;;;;;;;12.47;51.41;100814.72;7390714;19;20368;-58
2023/01/11 11:59:03;;;;;;;13.55;3.10;;;;;;;12.46;51.47;100818.63;7391387;19;20005;-60
2023/01/11 12:01:31;;;;;;;11.38;3.03;;;;;;;12.48;50.96;100813.59;7389132;19;20010;-60
2023/01/11 12:04:14;;;;;;;11.50;2.60;;;;;;;12.38;50.64;100805.91;7390523;19;20035;-59
2023/01/11 12:06:41;;;;;;;13.45;2.60;;;;;;;12.47;50.64;100809.25;7390332;19;20022;-60
2023/01/11 12:09:32;;;;;;;10.00;2.40;;;;;;;12.43;50.58;100811.09;7389184;19;20030;-60
2023/01/11 12:11:58;;;;;;;12.95;3.13;;;;;;;12.26;50.92;100817.72;7389704;19;20072;-59
2023/01/11 12:14:33;;;;;;;13.07;2.60;;;;;;;12.23;50.72;100811.00;7389788;19;20023;-59
2023/01/11 12:16:59;;;;;;;16.10;3.00;;;;;;;12.36;50.22;100808.22;7388587;19;20014;-59